Hagen — V2PB3 — position and weather

sailwx.info

Track history (hours):
 
Tides and Currents Weather Stations Pressure Air Temp Water Temp Dewpoint Dewpoint Depression Visibility Wind Speed Wind Dir Waves Ship Positions

Hagen

Last reported at 2014-Aug-26 16:21 UTC. Time now 2014-Sep-15 09:29 UTC.
Position N 35°49' E 030°25'.
Warning: this ship's position is 19 days out of date.

Length 89 m; draft 5.8 m.

Type: Cargo ship. MMSI: 304010898.

Date/timePositionNaut miles runAvg speedWind from/ knotsBaromVisibWave heightAir tempDewpointWater temp
2014-Aug-26 16:21N 35°49' E 030°25'105 8.6
2014-Aug-26 04:04N 35°48' E 028°16'16 9.0
2014-Aug-26 02:16N 35°47' E 027°56'78 8.9
2014-Aug-25 17:33N 36°41' E 026°46'10 9.9
2014-Aug-25 16:32N 36°51' E 026°43'1010.0
2014-Aug-25 15:32N 37°01' E 026°40'9 9.5
2014-Aug-25 14:33N 37°06' E 026°30'10 9.6
2014-Aug-25 13:33N 37°11' E 026°20'9 9.0
2014-Aug-25 12:33N 37°16' E 026°10'10 9.7
2014-Aug-25 11:33N 37°21' E 025°60'9 9.2
2014-Aug-25 10:33N 37°28' E 025°53'1010.0
2014-Aug-25 09:33N 37°37' E 025°48'10 9.5
2014-Aug-25 08:29N 37°46' E 025°43'8 9.0
2014-Aug-25 07:33N 37°55' E 025°41'10 9.6
2014-Aug-25 06:33N 38°04' E 025°41'10 9.6
2014-Aug-25 05:33N 38°14' E 025°41'9 9.3
2014-Aug-25 04:33N 38°23' E 025°42'9 9.4
2014-Aug-25 03:33N 38°32' E 025°42'9 9.1
2014-Aug-25 02:33N 38°42' E 025°42'21 9.6
2014-Aug-25 00:21N 39°03' E 025°43'57 9.5
2014-Aug-24 18:19N 39°59' E 025°57'7 9.2
2014-Aug-24 17:33N 40°01' E 026°06'46 9.0
2014-Aug-24 12:28N 40°29' E 026°53'20 9.6
2014-Aug-24 10:24N 40°38' E 027°17'73 9.0
2014-Aug-24 02:20N 40°55' E 028°51'6 7.1
2014-Aug-24 01:32N 40°59' E 028°56'0 0.1
2014-Aug-23 23:29N 40°59' E 028°56'0 0.1
2014-Aug-23 22:24N 40°59' E 028°56'  
2014-Aug-21 02:10N 40°59' E 028°60'5 8.4
2014-Aug-21 01:32N 40°54' E 028°57'10 8.6
2014-Aug-21 00:24N 40°48' E 028°47'4 4.3
2014-Aug-20 23:33N 40°44' E 028°45'1 0.6
2014-Aug-20 22:32N 40°45' E 028°46'1 0.6
2014-Aug-20 21:33N 40°45' E 028°47'1 0.8
2014-Aug-20 20:28N 40°45' E 028°48'1 0.9
2014-Aug-20 19:32N 40°45' E 028°49'1 1.1
2014-Aug-20 18:26N 40°45' E 028°50'1 0.9
2014-Aug-20 17:33N 40°45' E 028°51'1 0.8
2014-Aug-20 16:33N 40°45' E 028°52'1 0.5
2014-Aug-20 15:33N 40°45' E 028°53'0 0.3
2014-Aug-20 14:30N 40°45' E 028°53'4 4.5
2014-Aug-20 13:33N 40°49' E 028°50'  
2014-Aug-17 18:33N 37°08' E 026°04'8 8.1
2014-Aug-17 17:33N 37°02' E 026°10'8 7.8
2014-Aug-17 16:33N 36°55' E 026°16'11 8.0
2014-Aug-17 15:10N 36°47' E 026°25'6 8.4
2014-Aug-17 14:27N 36°43' E 026°30'  
Track history (hours):
 
Tides and Currents Weather Stations Pressure Air Temp Water Temp Dewpoint Dewpoint Depression Visibility Wind Speed Wind Dir Waves Ship Positions

Hagen

Last reported at 2014-Aug-26 16:21 UTC. Time now 2014-Sep-15 09:29 UTC.
Position N 35°49' E 030°25'.
Warning: this ship's position is 19 days out of date.

Length 89 m; draft 5.8 m.

Type: Cargo ship. MMSI: 304010898.

Date/timePositionNaut miles runAvg speedWind from/ knotsBaromVisibWave heightAir tempDewpointWater temp
2014-Aug-26 16:21N 35°49' E 030°25'105 8.6
2014-Aug-26 04:04N 35°48' E 028°16'16 9.0
2014-Aug-26 02:16N 35°47' E 027°56'78 8.9
2014-Aug-25 17:33N 36°41' E 026°46'10 9.9
2014-Aug-25 16:32N 36°51' E 026°43'1010.0
2014-Aug-25 15:32N 37°01' E 026°40'9 9.5
2014-Aug-25 14:33N 37°06' E 026°30'10 9.6
2014-Aug-25 13:33N 37°11' E 026°20'9 9.0
2014-Aug-25 12:33N 37°16' E 026°10'10 9.7
2014-Aug-25 11:33N 37°21' E 025°60'9 9.2
2014-Aug-25 10:33N 37°28' E 025°53'1010.0
2014-Aug-25 09:33N 37°37' E 025°48'10 9.5
2014-Aug-25 08:29N 37°46' E 025°43'8 9.0
2014-Aug-25 07:33N 37°55' E 025°41'10 9.6
2014-Aug-25 06:33N 38°04' E 025°41'10 9.6
2014-Aug-25 05:33N 38°14' E 025°41'9 9.3
2014-Aug-25 04:33N 38°23' E 025°42'9 9.4
2014-Aug-25 03:33N 38°32' E 025°42'9 9.1
2014-Aug-25 02:33N 38°42' E 025°42'21 9.6
2014-Aug-25 00:21N 39°03' E 025°43'57 9.5
2014-Aug-24 18:19N 39°59' E 025°57'7 9.2
2014-Aug-24 17:33N 40°01' E 026°06'46 9.0
2014-Aug-24 12:28N 40°29' E 026°53'20 9.6
2014-Aug-24 10:24N 40°38' E 027°17'73 9.0
2014-Aug-24 02:20N 40°55' E 028°51'6 7.1
2014-Aug-24 01:32N 40°59' E 028°56'0 0.1
2014-Aug-23 23:29N 40°59' E 028°56'0 0.1
2014-Aug-23 22:24N 40°59' E 028°56'  
2014-Aug-21 02:10N 40°59' E 028°60'5 8.4
2014-Aug-21 01:32N 40°54' E 028°57'10 8.6
2014-Aug-21 00:24N 40°48' E 028°47'4 4.3
2014-Aug-20 23:33N 40°44' E 028°45'1 0.6
2014-Aug-20 22:32N 40°45' E 028°46'1 0.6
2014-Aug-20 21:33N 40°45' E 028°47'1 0.8
2014-Aug-20 20:28N 40°45' E 028°48'1 0.9
2014-Aug-20 19:32N 40°45' E 028°49'1 1.1
2014-Aug-20 18:26N 40°45' E 028°50'1 0.9
2014-Aug-20 17:33N 40°45' E 028°51'1 0.8
2014-Aug-20 16:33N 40°45' E 028°52'1 0.5
2014-Aug-20 15:33N 40°45' E 028°53'0 0.3
2014-Aug-20 14:30N 40°45' E 028°53'4 4.5
2014-Aug-20 13:33N 40°49' E 028°50'  
2014-Aug-17 18:33N 37°08' E 026°04'8 8.1
2014-Aug-17 17:33N 37°02' E 026°10'8 7.8
2014-Aug-17 16:33N 36°55' E 026°16'11 8.0
2014-Aug-17 15:10N 36°47' E 026°25'6 8.4
2014-Aug-17 14:27N 36°43' E 026°30'  

Dump ship's entire track history